CDT,Max TemperatureF,Mean TemperatureF,Min TemperatureF,Max Dew PointF,MeanDew PointF,Min DewpointF,Max Humidity, Mean Humidity, Min Humidity, Max Sea Level PressureIn, Mean Sea Level PressureIn, Min Sea Level PressureIn, Max VisibilityMiles, Mean VisibilityMiles, Min VisibilityMiles, Max Wind SpeedMPH, Mean Wind SpeedMPH, Max Gust SpeedMPH,PrecipitationIn, CloudCover, Events, WindDirDegrees
2011-10-1,59,42,24,36,30,21,100,69,34,30.32,30.26,30.15,10,10,10,14,3,18,0.00,0,,183
2011-10-2,77,60,42,46,37,34,76,48,26,30.17,30.13,30.09,10,10,10,7,3,,0.00,0,,211
2011-10-3,78,58,37,43,39,36,93,57,23,30.20,30.17,30.13,10,10,10,12,3,18,0.00,0,,174
2011-10-4,78,58,37,48,40,36,93,59,24,30.16,30.13,30.08,10,10,10,10,3,,0.00,0,,193
2011-10-5,73,58,42,48,44,39,87,63,38,30.12,30.10,30.07,10,10,10,17,4,21,0.00,0,,131
2011-10-6,78,61,44,48,44,39,93,57,24,30.13,30.09,30.05,10,10,10,16,4,24,0.00,0,,164
2011-10-7,78,69,60,54,50,46,59,51,39,30.05,29.92,29.76,10,10,10,24,13,36,0.00,1,,166
2011-10-8,73,66,60,63,57,48,94,77,46,30.04,29.92,29.76,10,10,7,20,10,31,0.26,6,Rain,217
2011-10-9,60,53,46,54,50,45,100,83,63,30.30,30.23,30.14,10,8,0,7,1,,0.03,5,Fog-Rain,48
2011-10-10,73,58,44,50,46,41,93,64,36,30.20,30.07,29.90,10,10,10,18,5,24,0.00,1,,140
2011-10-11,71,61,51,52,49,45,100,68,38,29.88,29.84,29.79,10,9,5,16,6,25,0.00,1,,178
2011-10-12,69,55,41,55,50,39,100,81,53,29.82,29.75,29.66,10,9,2,14,3,31,0.69,3,Rain-Thunderstorm,155
2011-10-13,53,52,48,52,51,46,100,96,87,29.64,29.55,29.49,10,8,1,13,3,20,0.30,8,Rain,261
2011-10-14,44,42,41,43,40,36,100,87,76,29.57,29.50,29.48,10,8,2,24,11,37,0.01,8,Rain,298
2011-10-15,44,40,35,34,30,28,87,68,57,29.67,29.64,29.58,10,10,10,23,13,33,0.00,7,Rain,292
2011-10-16,44,40,37,36,30,23,87,64,46,29.64,29.59,29.55,10,10,10,26,13,43,0.00,7,,273
2011-10-17,44,40,37,37,30,27,93,65,49,29.75,29.60,29.52,10,10,7,23,16,32,0.00,7,Rain,287
2011-10-18,37,35,33,34,31,30,93,84,75,30.02,29.91,29.79,10,9,3,10,7,18,0.00,8,Rain-Snow,319
2011-10-19,42,36,30,32,30,28,100,81,61,30.16,30.11,30.04,10,9,2,8,4,,0.00,7,Rain-Snow,3
2011-10-20,44,37,30,30,27,21,87,67,42,30.08,29.98,29.90,10,10,10,10,6,17,0.00,3,,4
2011-10-21,55,37,19,30,25,18,100,71,35,29.95,29.92,29.87,10,10,7,10,2,16,0.00,0,,226
2011-10-22,48,39,30,37,33,28,100,84,53,30.08,30.02,29.94,10,9,3,7,3,,0.00,3,,278
2011-10-23,48,44,41,43,39,28,93,83,57,29.84,29.75,29.71,10,10,5,12,6,23,0.08,5,Rain,225
2011-10-24,46,38,30,34,30,27,93,73,46,30.01,29.92,29.80,10,10,10,10,4,16,0.00,4,,284
2011-10-25,44,34,24,30,28,25,100,78,53,30.08,30.04,30.00,10,10,1,6,1,,0.00,0,,76
2011-10-26,44,36,28,34,28,25,100,75,49,30.05,30.03,30.00,10,10,10,12,2,20,0.00,4,,330
2011-10-27,41,34,26,36,30,25,93,89,76,30.01,29.98,29.97,10,8,0,7,1,,0.10,7,Rain-Snow,269
2011-10-28,42,32,21,34,27,19,100,86,61,30.01,29.94,29.89,10,10,3,15,2,24,0.01,5,Rain-Snow,246
2011-10-29,42,36,30,34,32,28,100,89,61,30.00,29.96,29.93,10,7,0,5,1,,0.00,6,Fog,224
2011-10-30,46,37,28,34,31,27,93,76,53,29.93,29.88,29.85,10,10,10,13,7,,0.00,5,,120
2011-10-31,44,40,37,37,36,34,93,83,66,29.94,29.91,29.85,10,10,5,9,2,,0.00,7,,190